M I D A S
Marine Information and Data Acquisition System
Tripno 1245 of the Zeeleeuw from 2007-04-16 11:27:28 to 2007-04-16 14:26:46
Back to CruiseResearch ActivitiesStationsMapUnderway DataData graphs

EquipmentUnitsComments
TimeDGPSUTC
LatitudeDGPSDM.mWGS84
LongitudeDGPSDM.mWGS84
SpeedMeteo Stationm/sRelative wind speed
DirectionMeteo StationdegRelative wind direction
TemperatureMeteo Stationdeg CelciusAir temperature
PressureMeteo StationPaAtmospheric pressure
HumidityMeteo Station%Relative humidity
Missing or incorrect values are displayed as -999
Metereological data collected by the RV Zeeleeuw from 2007-04-16 08:22:18 to 2007-04-16 14:35:22
Time Latitude Longitude Speed Direction Temperature Pressure Humidity
2007-04-16 08:23 51°13.612 2°56.036 3.1 25 13.3 102230 81
2007-04-16 08:24 51°13.637 2°55.939 6.7 26 13.4 102230 81
2007-04-16 08:25 51°13.678 2°55.845 5 27 13.2 102240 81
2007-04-16 08:26 51°13.707 2°55.766 4.9 26 13 102250 82
2007-04-16 08:27 51°13.717 2°55.736 4.7 257 12.9 102240 83
2007-04-16 08:28 51°13.712 2°55.73 5.8 256 12.9 102230 84
2007-04-16 08:29 51°13.714 2°55.736 4 28 12.9 102240 84
2007-04-16 08:30 51°13.705 2°55.731 5 26 12.9 102240 84
2007-04-16 08:31 51°13.722 2°55.727 5.6 340 12.9 102240 84
2007-04-16 08:32 51°13.767 2°55.683 6.7 342 12.7 102240 85
2007-04-16 08:33 51°13.837 2°55.622 7.3 339 12.6 102230 86
2007-04-16 08:34 51°13.907 2°55.561 6.9 339 12.6 102240 87
2007-04-16 08:35 51°13.965 2°55.508 5.9 338 12.6 102240 87
2007-04-16 08:36 51°14 2°55.459 6.2 340 12.5 102240 87
2007-04-16 08:37 51°14.004 2°55.454 4.8 330 12.4 102250 88
2007-04-16 08:38 51°14.005 2°55.453 3.8 337 12.3 102250 88
2007-04-16 08:39 51°14.003 2°55.451 4.4 333 12.3 102240 89
2007-04-16 08:40 51°14.004 2°55.451 4.3 333 12.3 102250 89
2007-04-16 08:41 51°14.005 2°55.452 3.4 330 12.3 102250 89
2007-04-16 08:42 51°14.004 2°55.452 4 333 12.3 102240 90
2007-04-16 08:43 51°14.004 2°55.451 4.8 333 12.3 102240 90
2007-04-16 08:44 51°14.004 2°55.451 4.4 334 12.3 102250 90
2007-04-16 08:45 51°14.002 2°55.448 4.5 327 12.3 102250 90
2007-04-16 08:46 51°14.003 2°55.45 3.6 326 12.2 102250 90
2007-04-16 08:47 51°14.004 2°55.452 4.7 333 12.3 102240 90
2007-04-16 08:48 51°14.003 2°55.451 4.5 330 12.3 102250 90
2007-04-16 08:49 51°14.003 2°55.45 4.8 329 12.2 102250 90
2007-04-16 08:50 51°14.003 2°55.451 4.5 329 12.2 102250 90
2007-04-16 08:51 51°14.003 2°55.451 4.2 327 12.2 102250 90
2007-04-16 08:52 51°14.003 2°55.451 5 334 12.3 102250 90
2007-04-16 08:53 51°14.003 2°55.451 4.5 329 12.3 102250 90
2007-04-16 08:54 51°14.004 2°55.451 4.3 334 12.3 102250 90
2007-04-16 08:55 51°14.004 2°55.451 4 342 12.3 102240 90
2007-04-16 08:56 51°14.004 2°55.451 4.5 335 12.3 102240 90
2007-04-16 08:57 51°14.004 2°55.451 4.4 329 12.3 102240 90
2007-04-16 08:58 51°14.004 2°55.451 4.6 331 12.3 102240 89
2007-04-16 08:59 51°14.004 2°55.451 3.4 330 12.3 102240 89
2007-04-16 09:00 51°14.004 2°55.45 3.7 327 12.3 102240 90
2007-04-16 09:01 51°14.004 2°55.451 3.3 335 12.3 102240 90
2007-04-16 09:02 51°14.003 2°55.45 3.5 338 12.3 102240 90
2007-04-16 09:03 51°14.003 2°55.451 2.9 333 12.4 102230 90
2007-04-16 09:04 51°14.003 2°55.45 3.5 330 12.5 102240 90
2007-04-16 09:05 51°14.004 2°55.45 3.4 340 12.5 102240 89
2007-04-16 09:06 51°14.003 2°55.45 3.9 323 12.5 102240 89
2007-04-16 09:07 51°14 2°55.446 3.8 336 12.5 102240 89
2007-04-16 09:08 51°14.001 2°55.448 3.4 329 12.5 102240 88
2007-04-16 09:09 51°14.001 2°55.448 3.8 332 12.5 102240 89
2007-04-16 09:10 51°14.003 2°55.449 4.3 329 12.5 102240 88
2007-04-16 09:11 51°14.004 2°55.45 3.3 331 12.5 102240 89
2007-04-16 09:12 51°14.003 2°55.448 4.1 337 12.5 102240 89
2007-04-16 09:13 51°14.003 2°55.449 4.2 336 12.5 102240 89
2007-04-16 09:14 51°14.004 2°55.451 5.3 333 12.5 102240 89
2007-04-16 09:15 51°14.004 2°55.451 4.4 333 12.5 102240 88
2007-04-16 09:16 51°14.004 2°55.451 4.8 337 12.5 102240 89
2007-04-16 09:17 51°14.004 2°55.451 4.9 332 12.5 102240 89
2007-04-16 09:18 51°14.003 2°55.449 4.1 329 12.4 102240 88
2007-04-16 09:19 51°14.004 2°55.451 4.5 331 12.4 102240 88
2007-04-16 09:20 51°14.004 2°55.451 4.6 328 12.4 102240 88
2007-04-16 09:21 51°14.004 2°55.451 4 325 12.4 102240 89
2007-04-16 09:22 51°14.003 2°55.451 4.2 329 12.4 102240 88
2007-04-16 09:23 51°14.003 2°55.451 3.8 332 12.4 102240 89
2007-04-16 09:24 51°14.004 2°55.451 3.7 323 12.4 102240 89
2007-04-16 09:25 51°14.004 2°55.452 4.6 331 12.4 102240 89
2007-04-16 09:26 51°14.003 2°55.452 4 332 12.4 102240 89
2007-04-16 09:27 51°14.004 2°55.452 4.7 334 12.4 102230 88
2007-04-16 09:28 51°14.004 2°55.452 4.8 332 12.5 102230 89
2007-04-16 09:29 51°14.004 2°55.452 4.5 328 12.4 102230 88
2007-04-16 09:30 51°14.004 2°55.452 3.7 328 12.4 102240 88
2007-04-16 09:31 51°14.004 2°55.452 4.8 333 12.4 102230 88
2007-04-16 09:32 51°14.005 2°55.452 3.6 327 12.4 102240 88
2007-04-16 09:33 51°14.004 2°55.45 3.8 329 12.4 102240 88
2007-04-16 09:34 51°14.004 2°55.451 3.3 331 12.4 102240 88
2007-04-16 09:35 51°14.004 2°55.45 4.2 331 12.4 102240 88
2007-04-16 09:36 51°14.003 2°55.45 4.4 332 12.4 102240 88
2007-04-16 09:37 51°14.003 2°55.45 4.2 336 12.4 102240 88
2007-04-16 09:38 51°14.005 2°55.452 3.5 335 12.4 102240 88
2007-04-16 09:39 51°14.003 2°55.451 4 333 12.5 102240 88
2007-04-16 09:40 51°14.003 2°55.45 4.3 337 12.5 102230 88
2007-04-16 09:41 51°14.003 2°55.451 3.7 342 12.5 102240 88
2007-04-16 09:42 51°14.003 2°55.45 3.1 335 12.4 102230 88
2007-04-16 09:43 51°14.003 2°55.45 4.5 331 12.5 102230 88
2007-04-16 09:44 51°14.005 2°55.452 4.2 334 12.4 102230 88
2007-04-16 09:45 51°14.005 2°55.452 3.4 329 12.5 102230 88
2007-04-16 09:46 51°14.004 2°55.451 4.5 332 12.6 102240 88
2007-04-16 09:47 51°14.003 2°55.45 3.9 334 12.6 102240 88
2007-04-16 09:48 51°14.003 2°55.45 3.3 325 12.6 102240 88
2007-04-16 09:49 51°14.003 2°55.449 3.3 331 12.5 102240 88
2007-04-16 09:50 51°14.003 2°55.45 4 333 12.5 102240 88
2007-04-16 09:51 51°14.003 2°55.449 3.1 335 12.6 102240 88
2007-04-16 09:52 51°14 2°55.447 4.1 332 12.6 102240 88
2007-04-16 09:53 51°13.998 2°55.446 3.4 334 12.6 102240 88
2007-04-16 09:54 51°14.002 2°55.45 3.1 335 12.6 102240 88
2007-04-16 09:55 51°14.003 2°55.451 4.2 337 12.7 102240 88
2007-04-16 09:56 51°14.003 2°55.451 3.5 329 12.7 102230 87
2007-04-16 09:57 51°14.003 2°55.451 4 333 12.6 102230 87
2007-04-16 09:58 51°14.003 2°55.452 3.7 332 12.6 102230 87
2007-04-16 09:59 51°14.003 2°55.452 3.7 328 12.6 102240 87
2007-04-16 10:00 51°14.004 2°55.452 3.6 328 12.7 102240 88
2007-04-16 10:01 51°14.003 2°55.452 3.2 335 12.7 102230 87
2007-04-16 10:02 51°14.003 2°55.452 3.3 329 12.8 102240 87
2007-04-16 10:03 51°14.002 2°55.45 3.5 333 12.7 102240 86
2007-04-16 10:04 51°14.003 2°55.451 2.9 335 12.7 102240 86
2007-04-16 10:05 51°14.003 2°55.451 4.1 324 12.8 102240 87
2007-04-16 10:06 51°14.004 2°55.452 3.7 331 12.8 102240 86
2007-04-16 10:07 51°14.003 2°55.452 3.7 327 12.8 102240 86
2007-04-16 10:08 51°14.003 2°55.451 3.3 326 12.8 102240 86
2007-04-16 10:09 51°14.003 2°55.451 3.6 326 12.8 102240 86
2007-04-16 10:10 51°14.003 2°55.451 3.7 333 12.8 102240 86
2007-04-16 10:11 51°14.003 2°55.451 3.7 331 12.8 102240 87
2007-04-16 10:12 51°14.003 2°55.451 3.6 327 12.8 102240 87
2007-04-16 10:13 51°14.003 2°55.451 3.4 330 12.8 102240 87
2007-04-16 10:14 51°14.004 2°55.451 3.5 325 12.8 102240 87
2007-04-16 10:15 51°14.003 2°55.45 3.9 327 12.8 102240 86
2007-04-16 10:16 51°14.003 2°55.45 3.2 327 12.8 102240 87
2007-04-16 10:17 51°14.003 2°55.45 3.4 328 12.8 102240 87
2007-04-16 10:18 51°14.003 2°55.451 2.9 330 12.8 102240 86
2007-04-16 10:19 51°14.003 2°55.45 3.2 328 12.8 102240 87
2007-04-16 10:20 51°14.003 2°55.45 3.5 328 12.9 102240 87
2007-04-16 10:21 51°14.003 2°55.451 3.7 325 12.9 102240 86
2007-04-16 10:22 51°14.003 2°55.451 4.2 324 12.9 102240 86
2007-04-16 10:23 51°14.003 2°55.451 4 330 12.9 102240 87
2007-04-16 10:24 51°14.003 2°55.451 4.9 326 12.9 102240 86
2007-04-16 10:25 51°14.003 2°55.451 3.9 328 12.9 102250 86
2007-04-16 10:26 51°14.003 2°55.451 4.2 319 12.9 102250 86
2007-04-16 10:27 51°14.003 2°55.451 4.2 322 13 102250 86
2007-04-16 10:28 51°14.004 2°55.451 4.7 319 13 102250 86
2007-04-16 10:29 51°14.004 2°55.452 4.3 327 13 102250 85
2007-04-16 10:30 51°14.004 2°55.451 5.3 325 12.9 102240 85
2007-04-16 10:31 51°14.003 2°55.451 5.3 331 12.8 102240 85
2007-04-16 10:32 51°14.003 2°55.451 4.3 324 12.8 102240 85
2007-04-16 10:33 51°14.003 2°55.451 4.4 316 12.8 102240 86
2007-04-16 10:34 51°14.003 2°55.451 3.7 327 12.9 102240 86
2007-04-16 10:35 51°14.004 2°55.452 4.4 324 13 102240 87
2007-04-16 10:36 51°14.004 2°55.451 4 320 12.9 102240 85
2007-04-16 10:37 51°14.004 2°55.451 4 317 12.9 102250 85
2007-04-16 10:38 51°14.004 2°55.452 4.9 325 12.9 102240 85
2007-04-16 10:39 51°14.004 2°55.451 4.6 330 12.8 102240 84
2007-04-16 10:40 51°14.004 2°55.451 4.5 333 12.7 102240 85
2007-04-16 10:41 51°14.004 2°55.451 4.9 332 12.6 102240 85
2007-04-16 10:42 51°14.004 2°55.451 4.2 336 12.6 102240 85
2007-04-16 10:43 51°14.004 2°55.451 4.2 327 12.6 102230 86
2007-04-16 10:44 51°14.004 2°55.451 3.9 327 12.6 102230 87
2007-04-16 10:45 51°14.004 2°55.451 4.3 334 12.6 102230 87
2007-04-16 10:46 51°14.004 2°55.452 3.7 332 12.6 102230 87
2007-04-16 10:47 51°14.003 2°55.452 4.6 331 12.6 102230 87
2007-04-16 10:48 51°14.003 2°55.451 4.4 334 12.6 102230 87
2007-04-16 10:49 51°14.003 2°55.451 3.9 329 12.5 102230 86
2007-04-16 10:50 51°14.003 2°55.452 4.5 328 12.6 102230 87
2007-04-16 10:51 51°14.003 2°55.452 3.5 331 12.5 102220 86
2007-04-16 10:52 51°14.003 2°55.452 3.2 327 12.6 102220 87
2007-04-16 10:53 51°14.003 2°55.451 4 327 12.6 102220 87
2007-04-16 10:54 51°14.003 2°55.451 4 333 12.6 102220 86
2007-04-16 10:55 51°14.004 2°55.451 3.9 328 12.7 102220 87
2007-04-16 10:56 51°14.003 2°55.452 4.3 331 12.7 102220 87
2007-04-16 10:57 51°14.003 2°55.452 4.1 326 12.6 102220 86
2007-04-16 10:58 51°14.004 2°55.452 4.4 321 12.6 102220 87
2007-04-16 10:59 51°14.005 2°55.45 3.7 331 12.6 102220 87
2007-04-16 11:00 51°14.006 2°55.449 4.3 325 12.8 102220 88
2007-04-16 11:01 51°14.007 2°55.448 3.6 333 12.7 102220 87
2007-04-16 11:02 51°14.008 2°55.447 3.9 324 12.7 102220 87
2007-04-16 11:03 51°14.01 2°55.445 3.8 331 12.7 102220 87
2007-04-16 11:04 51°14.011 2°55.443 3.9 325 12.7 102220 87
2007-04-16 11:05 51°14.012 2°55.441 3.8 334 12.7 102220 87
2007-04-16 11:06 51°14.02 2°55.441 4.6 331 12.7 102220 87
2007-04-16 11:07 51°14.016 2°55.442 4 327 12.7 102220 87
2007-04-16 11:08 51°14.007 2°55.461 4.1 331 12.6 102220 86
2007-04-16 11:09 51°14.007 2°55.455 5 325 12.6 102220 86
2007-04-16 11:10 51°14.005 2°55.454 4.6 319 12.6 102220 86
2007-04-16 11:11 51°14.004 2°55.453 3.9 319 12.7 102220 87
2007-04-16 11:12 51°14.004 2°55.452 4 327 12.8 102220 87
2007-04-16 11:13 51°14.003 2°55.452 4.6 329 12.8 102220 86
2007-04-16 11:14 51°14.003 2°55.452 4.9 325 12.8 102220 86
2007-04-16 11:15 51°14.003 2°55.452 4.5 325 12.8 102220 87
2007-04-16 11:16 51°14.003 2°55.452 3.2 29 12.8 102220 86
2007-04-16 11:17 51°14.004 2°55.452 3.8 330 12.8 102220 86
2007-04-16 11:18 51°14.004 2°55.452 4.5 324 12.8 102220 86
2007-04-16 11:19 51°14.004 2°55.452 5 327 12.7 102220 86
2007-04-16 11:20 51°14.004 2°55.452 3.1 329 12.6 102220 86
2007-04-16 11:21 51°14.004 2°55.452 4.2 325 12.6 102210 86
2007-04-16 11:22 51°14.004 2°55.452 4.4 333 12.6 102220 86
2007-04-16 11:23 51°14.004 2°55.452 3.7 328 12.6 102220 87
2007-04-16 11:24 51°14.004 2°55.451 3.9 329 12.7 102210 87
2007-04-16 11:25 51°14.004 2°55.451 4.9 333 12.7 102210 87
2007-04-16 11:26 51°14.004 2°55.451 4.8 329 12.7 102220 86
2007-04-16 11:27 51°14.004 2°55.452 4.7 331 12.6 102220 86
2007-04-16 11:28 51°14.004 2°55.452 4.9 330 12.6 102220 86
2007-04-16 11:29 51°14.004 2°55.453 4.2 330 12.6 102220 86
2007-04-16 11:30 51°14.003 2°55.452 4.8 329 12.6 102210 86
2007-04-16 11:31 51°14.003 2°55.452 4.6 331 12.6 102210 86
2007-04-16 11:32 51°14.003 2°55.452 4.8 324 12.6 102220 86
2007-04-16 11:33 51°14.003 2°55.452 3.8 326 12.6 102210 86
2007-04-16 11:34 51°14.004 2°55.452 4.5 332 12.6 102210 86
2007-04-16 11:35 51°14.004 2°55.452 4.3 328 12.6 102210 87
2007-04-16 11:36 51°14.004 2°55.451 4.1 326 12.6 102210 86
2007-04-16 11:37 51°14.004 2°55.452 4 334 12.7 102210 86
2007-04-16 11:38 51°14.003 2°55.451 5.1 331 12.7 102210 86
2007-04-16 11:39 51°14.003 2°55.453 5.2 324 12.7 102210 86
2007-04-16 11:40 51°14.004 2°55.455 5.3 324 12.6 102210 86
2007-04-16 11:41 51°14.043 2°55.447 6.3 329 12.6 102200 86
2007-04-16 11:42 51°14.147 2°55.411 7.9 333 12.6 102190 86
2007-04-16 11:43 51°14.253 2°55.289 7.2 344 12.5 102190 86
2007-04-16 11:44 51°14.346 2°55.098 9.1 343 12.4 102190 86
2007-04-16 11:45 51°14.443 2°54.865 7.6 349 12.3 102190 87
2007-04-16 11:46 51°14.507 2°54.611 6.7 351 12.1 102190 88
2007-04-16 11:47 51°14.55 2°54.363 7.8 355 12 102180 89
2007-04-16 11:48 51°14.588 2°54.107 8.7 351 11.9 102190 89
2007-04-16 11:49 51°14.624 2°53.85 7.6 354 11.9 102190 90
2007-04-16 11:50 51°14.606 2°53.597 7 359 11.8 102190 91
2007-04-16 11:51 51°14.6 2°53.34 7.5 356 11.8 102200 91
2007-04-16 11:52 51°14.592 2°53.074 8 355 11.8 102190 91
2007-04-16 11:53 51°14.584 2°52.807 6.5 355 11.8 102200 92
2007-04-16 11:54 51°14.575 2°52.539 7.2 354 11.8 102190 92
2007-04-16 11:55 51°14.535 2°52.353 4 30 11.8 102210 92
2007-04-16 11:56 51°14.485 2°52.32 3.6 44 11.7 102210 92
2007-04-16 11:57 51°14.449 2°52.307 4.4 38 11.7 102210 92
2007-04-16 11:58 51°14.446 2°52.25 5.6 14 11.7 102200 92
2007-04-16 11:59 51°14.466 2°52.169 7.2 9 11.8 102200 92
2007-04-16 12:00 51°14.472 2°52.084 6.8 10 11.8 102200 92
2007-04-16 12:01 51°14.468 2°52.002 5.2 17 11.8 102200 93
2007-04-16 12:02 51°14.463 2°51.92 5.8 12 11.8 102190 92
2007-04-16 12:03 51°14.448 2°51.846 4.8 25 11.8 102200 92
2007-04-16 12:04 51°14.41 2°51.789 4.4 30 11.8 102200 92
2007-04-16 12:05 51°14.361 2°51.737 3.8 26 11.8 102200 92
2007-04-16 12:06 51°14.314 2°51.683 3.9 33 11.8 102200 92
2007-04-16 12:07 51°14.276 2°51.627 4.1 25 11.8 102200 92
2007-04-16 12:08 51°14.243 2°51.565 4.7 24 11.8 102200 92
2007-04-16 12:09 51°14.202 2°51.513 5.3 26 11.8 102200 92
2007-04-16 12:10 51°14.174 2°51.446 4.7 23 11.7 102200 92
2007-04-16 12:11 51°14.143 2°51.381 4.8 31 11.8 102200 93
2007-04-16 12:12 51°14.106 2°51.321 5.3 23 11.7 102200 92
2007-04-16 12:13 51°14.078 2°51.249 5.3 19 11.7 102200 92
2007-04-16 12:14 51°14.056 2°51.171 4.8 27 11.7 102200 93
2007-04-16 12:15 51°14.024 2°51.102 6 23 11.7 102200 93
2007-04-16 12:16 51°13.999 2°51.03 6.5 19 11.7 102200 92
2007-04-16 12:17 51°13.976 2°50.953 6.2 22 11.7 102200 92
2007-04-16 12:18 51°13.954 2°50.874 5.7 23 11.7 102200 92
2007-04-16 12:19 51°13.934 2°50.799 6.6 23 11.6 102190 92
2007-04-16 12:20 51°13.903 2°50.73 5.6 23 11.7 102200 93
2007-04-16 12:21 51°13.879 2°50.656 5.1 19 11.7 102200 93
2007-04-16 12:22 51°13.864 2°50.574 5.3 21 11.7 102190 93
2007-04-16 12:23 51°13.841 2°50.498 5.5 18 11.6 102190 93
2007-04-16 12:24 51°13.824 2°50.415 5.5 20 11.6 102190 93
2007-04-16 12:25 51°13.804 2°50.332 6.5 25 11.6 102190 93
2007-04-16 12:26 51°13.779 2°50.256 5.6 29 11.6 102190 93
2007-04-16 12:27 51°13.755 2°50.175 5.4 25 11.6 102190 93
2007-04-16 12:28 51°13.751 2°50.087 7.3 13 11.6 102190 93
2007-04-16 12:29 51°13.759 2°49.997 6.5 8 11.6 102190 93
2007-04-16 12:30 51°13.781 2°49.918 6.5 1 11.6 102180 93
2007-04-16 12:31 51°13.824 2°49.86 8.1 344 11.5 102180 93
2007-04-16 12:32 51°13.875 2°49.837 7.8 341 11.5 102190 93
2007-04-16 12:33 51°13.914 2°49.833 7.3 340 11.5 102180 93
2007-04-16 12:34 51°13.944 2°49.84 7.3 343 11.5 102190 93
2007-04-16 12:35 51°13.966 2°49.852 7 341 11.5 102190 93
2007-04-16 12:36 51°14.029 2°49.913 8.5 28 11.6 102180 93
2007-04-16 12:37 51°14 2°50.067 3 264 11.6 102200 93
2007-04-16 12:38 51°13.89 2°50.253 2.1 263 11.7 102200 93
2007-04-16 12:39 51°13.854 2°50.387 6 253 11.8 102200 93
2007-04-16 12:40 51°13.863 2°50.435 5.7 250 11.9 102190 92
2007-04-16 12:41 51°13.868 2°50.441 7.9 255 11.9 102190 92
2007-04-16 12:42 51°13.874 2°50.448 5.1 263 11.9 102200 92
2007-04-16 12:43 51°13.881 2°50.459 4.6 263 11.9 102200 91
2007-04-16 12:44 51°13.888 2°50.472 5 266 11.8 102190 91
2007-04-16 12:45 51°13.888 2°50.512 5.8 23 11.8 102200 91
2007-04-16 12:46 51°13.829 2°50.525 6.2 26 11.8 102200 91
2007-04-16 12:47 51°13.793 2°50.376 5.5 6 11.7 102190 91
2007-04-16 12:48 51°13.733 2°50.143 7.5 2 11.6 102190 91
2007-04-16 12:49 51°13.655 2°49.85 8.4 357 11.5 102180 91
2007-04-16 12:50 51°13.577 2°49.55 8.7 359 11.5 102180 92
2007-04-16 12:51 51°13.497 2°49.249 8.8 359 11.4 102180 92
2007-04-16 12:52 51°13.416 2°48.941 9.2 356 11.4 102180 93
2007-04-16 12:53 51°13.337 2°48.643 8.2 357 11.4 102180 93
2007-04-16 12:54 51°13.25 2°48.34 8.5 359 11.4 102180 93
2007-04-16 12:55 51°13.159 2°48.052 8.8 359 11.4 102180 93
2007-04-16 12:56 51°13.068 2°47.757 8.9 358 11.3 102180 93
2007-04-16 12:57 51°12.975 2°47.457 8.1 358 11.3 102180 93
2007-04-16 12:58 51°12.884 2°47.162 8.1 357 11.3 102190 93
2007-04-16 12:59 51°12.791 2°46.867 8.6 357 11.3 102180 93
2007-04-16 13:00 51°12.7 2°46.573 8.6 357 11.3 102180 93
2007-04-16 13:01 51°12.609 2°46.277 8 357 11.4 102190 93
2007-04-16 13:02 51°12.519 2°45.987 8.6 360 11.3 102190 93
2007-04-16 13:03 51°12.415 2°45.743 4.3 20 11.3 102190 93
2007-04-16 13:04 51°12.327 2°45.699 4.3 37 11.4 102200 94
2007-04-16 13:05 51°12.288 2°45.645 5.7 15 11.4 102200 93
2007-04-16 13:06 51°12.27 2°45.558 6.8 12 11.5 102200 93
2007-04-16 13:07 51°12.256 2°45.477 6.6 16 11.5 102200 93
2007-04-16 13:08 51°12.245 2°45.401 5.7 20 11.5 102200 93
2007-04-16 13:09 51°12.225 2°45.314 5.2 17 11.5 102200 93
2007-04-16 13:10 51°12.209 2°45.223 6.4 10 11.5 102200 93
2007-04-16 13:11 51°12.197 2°45.132 6.5 9 11.5 102200 93
2007-04-16 13:12 51°12.183 2°45.04 6.5 13 11.5 102200 93
2007-04-16 13:13 51°12.17 2°44.95 6.4 14 11.5 102200 93
2007-04-16 13:14 51°12.157 2°44.859 6.3 12 11.5 102210 93
2007-04-16 13:15 51°12.144 2°44.769 6.5 8 11.5 102210 93
2007-04-16 13:16 51°12.13 2°44.681 6.9 11 11.5 102210 93
2007-04-16 13:17 51°12.117 2°44.591 7 8 11.5 102210 93
2007-04-16 13:18 51°12.104 2°44.502 7.4 9 11.5 102220 93
2007-04-16 13:19 51°12.09 2°44.412 7.8 9 11.5 102210 93
2007-04-16 13:20 51°12.075 2°44.324 6.4 10 11.4 102210 93
2007-04-16 13:21 51°12.06 2°44.235 6.5 8 11.4 102210 93
2007-04-16 13:22 51°12.043 2°44.148 6 7 11.4 102220 93
2007-04-16 13:23 51°12.025 2°44.062 7.8 11 11.4 102220 93
2007-04-16 13:24 51°12.006 2°43.974 7.9 11 11.4 102220 93
2007-04-16 13:25 51°11.988 2°43.886 7.1 8 11.4 102220 93
2007-04-16 13:26 51°11.97 2°43.799 5 6 11.4 102220 93
2007-04-16 13:27 51°11.952 2°43.714 7.3 9 11.4 102220 93
2007-04-16 13:28 51°11.932 2°43.626 7.6 11 11.4 102230 93
2007-04-16 13:29 51°11.913 2°43.541 8.4 11 11.3 102220 93
2007-04-16 13:30 51°11.891 2°43.456 7.5 10 11.3 102220 93
2007-04-16 13:31 51°11.853 2°43.389 6.8 21 11.3 102230 94
2007-04-16 13:32 51°11.812 2°43.325 6.7 19 11.4 102230 93
2007-04-16 13:33 51°11.775 2°43.253 6.5 15 11.4 102230 93
2007-04-16 13:34 51°11.744 2°43.176 7.4 11 11.4 102230 93
2007-04-16 13:35 51°11.724 2°43.095 6.3 8 11.3 102230 93
2007-04-16 13:36 51°11.723 2°43.016 8.2 357 11.3 102230 93
2007-04-16 13:37 51°11.743 2°42.971 8.5 347 11.2 102220 93
2007-04-16 13:38 51°11.757 2°42.951 8.9 348 11.2 102220 94
2007-04-16 13:39 51°11.804 2°42.932 9.8 26 11.2 102230 94
2007-04-16 13:40 51°11.866 2°43.065 10.7 21 11.3 102220 94
2007-04-16 13:41 51°11.97 2°43.358 10.8 25 11.3 102210 94
2007-04-16 13:42 51°12.077 2°43.659 10.1 23 11.4 102210 94
2007-04-16 13:43 51°12.117 2°43.834 4.8 265 11.5 102230 94
2007-04-16 13:44 51°12.108 2°43.914 6.7 27 11.5 102230 93
2007-04-16 13:45 51°12.107 2°43.936 3.7 26 11.4 102240 93
2007-04-16 13:46 51°12.103 2°43.956 5.3 26 11.7 102240 94
2007-04-16 13:47 51°12.098 2°43.975 6 26 11.7 102240 92
2007-04-16 13:48 51°12.09 2°43.993 6 25 11.5 102240 92
2007-04-16 13:49 51°12.082 2°44.008 7.1 20 11.4 102240 92
2007-04-16 13:50 51°12.072 2°44.019 6.9 43 11.3 102240 92
2007-04-16 13:51 51°12.04 2°44.062 6.4 26 11.3 102240 93
2007-04-16 13:52 51°12.059 2°44.186 8 27 11.4 102230 93
2007-04-16 13:53 51°12.156 2°44.459 11.3 22 11.4 102210 93
2007-04-16 13:54 51°12.264 2°44.766 12 27 11.4 102210 93
2007-04-16 13:55 51°12.377 2°45.08 11.4 27 11.5 102210 92
2007-04-16 13:56 51°12.48 2°45.401 11 25 11.5 102200 92
2007-04-16 13:57 51°12.585 2°45.73 10.1 23 11.5 102200 92
2007-04-16 13:58 51°12.686 2°46.047 10.8 24 11.5 102200 92
2007-04-16 13:59 51°12.795 2°46.361 10.4 22 11.5 102200 92
2007-04-16 14:00 51°12.903 2°46.675 11.7 21 11.5 102200 92
2007-04-16 14:01 51°13.014 2°46.994 10.9 25 11.5 102210 92
2007-04-16 14:02 51°13.122 2°47.31 10.7 20 11.5 102210 92
2007-04-16 14:03 51°13.229 2°47.621 11.2 22 11.5 102200 92
2007-04-16 14:04 51°13.336 2°47.936 11.8 22 11.5 102200 92
2007-04-16 14:05 51°13.446 2°48.255 10.8 23 11.5 102200 92
2007-04-16 14:06 51°13.554 2°48.569 11.9 27 11.5 102200 92
2007-04-16 14:07 51°13.659 2°48.879 11.3 24 11.6 102200 91
2007-04-16 14:08 51°13.765 2°49.195 10.6 21 11.6 102200 91
2007-04-16 14:09 51°13.863 2°49.524 11.2 25 11.6 102200 91
2007-04-16 14:10 51°13.954 2°49.843 10.5 22 11.6 102200 91
2007-04-16 14:11 51°14.04 2°50.172 11.6 22 11.6 102200 92
2007-04-16 14:12 51°14.122 2°50.51 10.5 25 11.6 102200 91
2007-04-16 14:13 51°14.202 2°50.843 10.2 25 11.6 102200 91
2007-04-16 14:14 51°14.282 2°51.175 11.1 24 11.6 102200 91
2007-04-16 14:15 51°14.35 2°51.507 10.4 26 11.6 102200 91
2007-04-16 14:16 51°14.415 2°51.851 10.9 23 11.6 102200 91
2007-04-16 14:17 51°14.469 2°52.187 9.9 26 11.6 102200 91
2007-04-16 14:18 51°14.515 2°52.539 9.4 27 11.7 102210 91
2007-04-16 14:19 51°14.556 2°52.88 9.7 24 11.7 102200 91
2007-04-16 14:20 51°14.589 2°53.237 9.5 22 11.7 102200 91
2007-04-16 14:21 51°14.604 2°53.586 8.6 19 11.7 102200 91
2007-04-16 14:22 51°14.599 2°53.946 6.6 26 11.8 102200 91
2007-04-16 14:23 51°14.521 2°54.292 7.3 25 11.8 102220 91
2007-04-16 14:24 51°14.46 2°54.644 6.7 26 11.8 102220 91
2007-04-16 14:25 51°14.382 2°54.977 4.2 26 11.9 102220 91
2007-04-16 14:26 51°14.262 2°55.242 2.2 322 11.9 102220 91
2007-04-16 14:27 51°14.151 2°55.38 1.1 26 12 102230 91
2007-04-16 14:28 51°14.042 2°55.468 1.3 26 12.1 102220 91
2007-04-16 14:29 51°13.928 2°55.555 2.5 23 12.2 102230 91
2007-04-16 14:30 51°13.818 2°55.64 1.8 25 12.3 102230 91
2007-04-16 14:31 51°13.73 2°55.752 3.1 270 12.3 102230 89
2007-04-16 14:32 51°13.673 2°55.871 2.3 22 12.3 102240 89
2007-04-16 14:33 51°13.636 2°55.964 2.9 265 12.3 102230 89
2007-04-16 14:34 51°13.614 2°56.045 7 348 12.3 102230 88
2007-04-16 14:35 51°13.605 2°56.09 3.8 26 12.4 102230 88